METAR Data
IDs: Format: Raw Decoded Include TAF

Data at: 1508 UTC 10 Aug 2022

KBFL 101454Z 31007KT 7SM CLR 21/12 A3005 RMK AO2 SLP170 T02110122 53021
KBFL 101354Z 34006KT 8SM CLR 21/12 A3003 RMK AO2 SLP163 T02060122
KBFL 101254Z 32007KT 8SM CLR 21/12 A3001 RMK AO2 SLP154 T02060122
KBFL 101154Z AUTO 32009KT 8SM CLR 22/12 A2999 RMK AO2 SLP149 T02220117 10289 20222 53013
KBFL 101054Z AUTO 31007KT 9SM CLR 23/12 A2997 RMK AO2 SLP142 T02330117
KBFL 100954Z AUTO 32006KT 9SM CLR 24/11 A2997 RMK AO2 SLP140 T02440111
KBFL 100854Z AUTO 34007KT 10SM CLR 26/09 A2995 RMK AO2 SLP135 T02560094 51008
KBFL 100754Z AUTO 33006KT 10SM CLR 27/09 A2995 RMK AO2 SLP133 T02670089 403720217
KBFL 100654Z AUTO 35006KT 10SM CLR 27/05 A2994 RMK AO2 SLP131 T02720050
KBFL 100554Z 34009KT 10SM CLR 29/03 A2993 RMK AO2 SLP127 T02890028 10367 20289 51023
KBFL 100454Z 33008KT 9SM CLR 30/07 A2991 RMK AO2 SLP122 T03000067
KBFL 100354Z 33006KT 9SM CLR 31/13 A2988 RMK AO2 SLP111 T03110133
KBFL 100254Z 30007KT 8SM CLR 34/10 A2986 RMK AO2 SLP103 T03390100 53006
KBFL 100154Z 33008KT 9SM CLR 36/11 A2984 RMK AO2 SLP097 T03560106
KBFL 100054Z 31010KT 8SM CLR 36/12 A2984 RMK AO2 SLP097 T03610122
KBFL 092354Z 31012KT 8SM CLR 37/13 A2984 RMK AO2 SLP097 T03670128 10372 20278 56021
KBFL 092254Z 31011G15KT 9SM CLR 36/13 A2985 RMK AO2 SLP101 T03610128
KBFL 092154Z 36005KT 8SM CLR 36/12 A2987 RMK AO2 SLP109 T03560122
KBFL 092054Z 00000KT 8SM CLR 32/12 A2990 RMK AO2 SLP119 T03220122 58017
KBFL 091954Z VRB05KT 8SM CLR 33/12 A2992 RMK AO2 SLP124 T03330122
KBFL 091854Z 30005KT 7SM CLR 32/13 A2994 RMK AO2 SLP131 T03170128
KBFL 091754Z 31004KT 7SM CLR 28/13 A2995 RMK AO2 SLP136 T02780128 10289 20228 50003
KBFL 091654Z 28005KT 7SM CLR 26/13 A2996 RMK AO2 SLP138 T02610128
KBFL 091554Z 32004KT 7SM CLR 24/13 A2996 RMK AO2 SLP137 T02440133
KBFL 091454Z 00000KT 7SM CLR 23/13 A2994 RMK AO2 SLP132 T02330133 53014
KBFL 091354Z 24004KT 8SM CLR 23/13 A2993 RMK AO2 SLP129 T02330133
KBFL 091254Z AUTO 33004KT 9SM CLR 23/14 A2991 RMK AO2 SLP121 T02280139
KBFL 091154Z AUTO 33007KT 9SM CLR 23/14 A2990 RMK AO2 SLP118 T02330139 10311 20217 53010
KBFL 091054Z AUTO 31008KT 9SM CLR 24/14 A2989 RMK AO2 SLP115 T02440144
KBFL 090954Z AUTO 31006KT 9SM CLR 27/13 A2988 RMK AO2 SLP110 T02670128
KBFL 090854Z AUTO 36007KT 9SM CLR 28/12 A2987 RMK AO2 SLP108 T02830122 58005
KBFL 090754Z AUTO 35004KT 9SM CLR 28/12 A2988 RMK AO2 SLP112 T02830122 403560222
KBFL 090654Z AUTO 02004KT 9SM CLR 31/13 A2989 RMK AO2 SLP114 T03060128
KBFL 090554Z 05004KT 9SM CLR 31/13 A2989 RMK AO2 SLP113 T03110128 10350 20311 50013
KBFL 090454Z 01004KT 9SM CLR 32/13 A2989 RMK AO2 SLP114 T03170133
KBFL 090354Z 28003KT 8SM CLR 33/13 A2987 RMK AO2 SLP106 T03280133